sensor_id;sensor_type;location;lat;lon;timestamp;P1;durP1;ratioP1;P2;durP2;ratioP2
67156;SDS011;54086;50.126;8.710;2023-02-20T00:00:35;10.50;;;4.53;;
67156;SDS011;54086;50.126;8.710;2023-02-20T00:03:01;9.55;;;3.67;;
67156;SDS011;54086;50.126;8.710;2023-02-20T00:05:27;11.25;;;4.20;;
67156;SDS011;54086;50.126;8.710;2023-02-20T00:07:52;8.70;;;4.17;;
67156;SDS011;54086;50.126;8.710;2023-02-20T00:10:18;10.20;;;4.20;;
67156;SDS011;54086;50.126;8.710;2023-02-20T00:12:44;9.40;;;4.20;;
67156;SDS011;54086;50.126;8.710;2023-02-20T00:15:09;9.80;;;4.50;;
67156;SDS011;54086;50.126;8.710;2023-02-20T00:17:38;9.77;;;4.40;;
67156;SDS011;54086;50.126;8.710;2023-02-20T00:20:05;9.30;;;4.03;;
67156;SDS011;54086;50.126;8.710;2023-02-20T00:22:32;11.98;;;4.18;;
67156;SDS011;54086;50.126;8.710;2023-02-20T00:24:57;10.40;;;4.60;;
67156;SDS011;54086;50.126;8.710;2023-02-20T00:27:22;10.63;;;4.45;;
67156;SDS011;54086;50.126;8.710;2023-02-20T00:29:48;11.17;;;5.03;;
67156;SDS011;54086;50.126;8.710;2023-02-20T00:32:13;11.13;;;4.60;;
67156;SDS011;54086;50.126;8.710;2023-02-20T00:34:40;11.45;;;4.80;;
67156;SDS011;54086;50.126;8.710;2023-02-20T00:37:05;11.80;;;5.03;;
67156;SDS011;54086;50.126;8.710;2023-02-20T00:39:31;10.50;;;4.77;;
67156;SDS011;54086;50.126;8.710;2023-02-20T00:41:56;10.57;;;4.43;;
67156;SDS011;54086;50.126;8.710;2023-02-20T00:44:23;11.02;;;4.60;;
67156;SDS011;54086;50.126;8.710;2023-02-20T00:46:48;10.00;;;4.65;;
67156;SDS011;54086;50.126;8.710;2023-02-20T00:49:14;10.90;;;4.73;;
67156;SDS011;54086;50.126;8.710;2023-02-20T00:51:39;11.83;;;4.90;;
67156;SDS011;54086;50.126;8.710;2023-02-20T00:54:04;11.13;;;4.30;;
67156;SDS011;54086;50.126;8.710;2023-02-20T00:56:30;12.17;;;5.10;;
67156;SDS011;54086;50.126;8.710;2023-02-20T00:58:56;11.60;;;4.90;;
67156;SDS011;54086;50.126;8.710;2023-02-20T01:01:21;12.10;;;5.20;;
67156;SDS011;54086;50.126;8.710;2023-02-20T01:03:47;11.43;;;4.90;;
67156;SDS011;54086;50.126;8.710;2023-02-20T01:06:12;10.90;;;5.10;;
67156;SDS011;54086;50.126;8.710;2023-02-20T01:08:38;11.32;;;5.22;;
67156;SDS011;54086;50.126;8.710;2023-02-20T01:11:03;12.23;;;5.50;;
67156;SDS011;54086;50.126;8.710;2023-02-20T01:13:29;12.43;;;4.83;;
67156;SDS011;54086;50.126;8.710;2023-02-20T01:15:54;12.65;;;4.82;;
67156;SDS011;54086;50.126;8.710;2023-02-20T01:18:20;12.97;;;5.07;;
67156;SDS011;54086;50.126;8.710;2023-02-20T01:20:45;11.90;;;5.23;;
67156;SDS011;54086;50.126;8.710;2023-02-20T01:23:10;11.03;;;5.00;;
67156;SDS011;54086;50.126;8.710;2023-02-20T01:25:36;10.87;;;4.80;;
67156;SDS011;54086;50.126;8.710;2023-02-20T01:28:01;10.80;;;4.70;;
67156;SDS011;54086;50.126;8.710;2023-02-20T01:30:27;10.67;;;4.87;;
67156;SDS011;54086;50.126;8.710;2023-02-20T01:32:52;13.30;;;4.75;;
67156;SDS011;54086;50.126;8.710;2023-02-20T01:35:18;10.37;;;4.13;;
67156;SDS011;54086;50.126;8.710;2023-02-20T01:37:43;10.70;;;4.07;;
67156;SDS011;54086;50.126;8.710;2023-02-20T01:40:19;11.23;;;4.40;;
67156;SDS011;54086;50.126;8.710;2023-02-20T01:42:46;11.27;;;4.70;;
67156;SDS011;54086;50.126;8.710;2023-02-20T01:45:33;11.88;;;4.70;;
67156;SDS011;54086;50.126;8.710;2023-02-20T01:47:59;10.20;;;4.35;;
67156;SDS011;54086;50.126;8.710;2023-02-20T01:50:26;9.87;;;4.40;;
67156;SDS011;54086;50.126;8.710;2023-02-20T01:52:57;12.13;;;4.50;;
67156;SDS011;54086;50.126;8.710;2023-02-20T01:55:29;10.63;;;3.95;;
67156;SDS011;54086;50.126;8.710;2023-02-20T01:58:19;10.43;;;4.20;;
67156;SDS011;54086;50.126;8.710;2023-02-20T02:00:45;11.27;;;4.50;;
67156;SDS011;54086;50.126;8.710;2023-02-20T02:03:12;9.68;;;4.28;;
67156;SDS011;54086;50.126;8.710;2023-02-20T02:05:43;12.53;;;5.03;;
67156;SDS011;54086;50.126;8.710;2023-02-20T02:08:11;11.15;;;4.88;;
67156;SDS011;54086;50.126;8.710;2023-02-20T02:10:43;11.43;;;5.07;;
67156;SDS011;54086;50.126;8.710;2023-02-20T02:13:14;10.98;;;4.65;;
67156;SDS011;54086;50.126;8.710;2023-02-20T02:15:39;9.70;;;4.43;;
67156;SDS011;54086;50.126;8.710;2023-02-20T02:40:55;9.60;;;4.22;;
67156;SDS011;54086;50.126;8.710;2023-02-20T02:44:30;10.60;;;4.40;;
67156;SDS011;54086;50.126;8.710;2023-02-20T02:46:48;10.50;;;4.18;;
67156;SDS011;54086;50.126;8.710;2023-02-20T02:52:04;10.30;;;4.63;;
67156;SDS011;54086;50.126;8.710;2023-02-20T02:54:31;9.60;;;4.10;;
67156;SDS011;54086;50.126;8.710;2023-02-20T02:57:17;10.27;;;4.60;;
67156;SDS011;54086;50.126;8.710;2023-02-20T02:59:48;11.88;;;4.65;;
67156;SDS011;54086;50.126;8.710;2023-02-20T03:02:27;10.70;;;4.60;;
67156;SDS011;54086;50.126;8.710;2023-02-20T03:04:55;11.82;;;4.20;;
67156;SDS011;54086;50.126;8.710;2023-02-20T03:07:22;11.48;;;4.90;;
67156;SDS011;54086;50.126;8.710;2023-02-20T03:12:20;11.65;;;5.18;;
67156;SDS011;54086;50.126;8.710;2023-02-20T03:14:49;10.57;;;4.90;;
67156;SDS011;54086;50.126;8.710;2023-02-20T03:17:41;10.25;;;5.00;;
67156;SDS011;54086;50.126;8.710;2023-02-20T03:20:13;12.20;;;4.93;;
67156;SDS011;54086;50.126;8.710;2023-02-20T03:22:54;14.55;;;5.20;;
67156;SDS011;54086;50.126;8.710;2023-02-20T03:25:24;10.50;;;4.90;;
67156;SDS011;54086;50.126;8.710;2023-02-20T03:27:57;12.03;;;4.60;;
67156;SDS011;54086;50.126;8.710;2023-02-20T03:30:46;11.23;;;4.95;;
67156;SDS011;54086;50.126;8.710;2023-02-20T03:33:17;13.70;;;5.53;;
67156;SDS011;54086;50.126;8.710;2023-02-20T03:36:09;12.68;;;4.80;;
67156;SDS011;54086;50.126;8.710;2023-02-20T03:39:06;12.93;;;4.53;;
67156;SDS011;54086;50.126;8.710;2023-02-20T03:41:54;9.60;;;4.07;;
67156;SDS011;54086;50.126;8.710;2023-02-20T03:44:39;10.80;;;4.28;;
67156;SDS011;54086;50.126;8.710;2023-02-20T03:47:05;11.82;;;4.45;;
67156;SDS011;54086;50.126;8.710;2023-02-20T03:49:37;10.88;;;4.28;;
67156;SDS011;54086;50.126;8.710;2023-02-20T03:52:06;12.60;;;4.13;;
67156;SDS011;54086;50.126;8.710;2023-02-20T03:54:32;13.23;;;5.47;;
67156;SDS011;54086;50.126;8.710;2023-02-20T03:57:01;12.48;;;4.60;;
67156;SDS011;54086;50.126;8.710;2023-02-20T04:00:15;11.35;;;5.32;;
67156;SDS011;54086;50.126;8.710;2023-02-20T04:02:25;13.05;;;5.28;;
67156;SDS011;54086;50.126;8.710;2023-02-20T04:04:56;10.43;;;4.67;;
67156;SDS011;54086;50.126;8.710;2023-02-20T04:07:26;13.60;;;5.10;;
67156;SDS011;54086;50.126;8.710;2023-02-20T04:09:59;11.73;;;4.95;;
67156;SDS011;54086;50.126;8.710;2023-02-20T04:12:32;14.75;;;4.68;;
67156;SDS011;54086;50.126;8.710;2023-02-20T04:15:01;12.05;;;5.18;;
67156;SDS011;54086;50.126;8.710;2023-02-20T04:17:33;11.93;;;4.80;;
67156;SDS011;54086;50.126;8.710;2023-02-20T04:20:04;12.68;;;5.18;;
67156;SDS011;54086;50.126;8.710;2023-02-20T04:22:31;12.27;;;5.13;;
67156;SDS011;54086;50.126;8.710;2023-02-20T04:25:08;12.45;;;4.95;;
67156;SDS011;54086;50.126;8.710;2023-02-20T04:27:41;12.00;;;4.70;;
67156;SDS011;54086;50.126;8.710;2023-02-20T04:30:07;16.25;;;5.47;;
67156;SDS011;54086;50.126;8.710;2023-02-20T04:32:34;15.63;;;4.77;;
67156;SDS011;54086;50.126;8.710;2023-02-20T04:34:59;15.45;;;4.80;;
67156;SDS011;54086;50.126;8.710;2023-02-20T04:37:25;10.57;;;5.47;;
67156;SDS011;54086;50.126;8.710;2023-02-20T04:39:50;12.17;;;4.80;;
67156;SDS011;54086;50.126;8.710;2023-02-20T04:42:16;11.37;;;4.70;;
67156;SDS011;54086;50.126;8.710;2023-02-20T04:44:41;13.27;;;5.17;;
67156;SDS011;54086;50.126;8.710;2023-02-20T04:47:09;12.70;;;5.23;;
67156;SDS011;54086;50.126;8.710;2023-02-20T04:49:36;12.40;;;5.10;;
67156;SDS011;54086;50.126;8.710;2023-02-20T04:52:02;14.07;;;4.40;;
67156;SDS011;54086;50.126;8.710;2023-02-20T04:54:28;9.52;;;4.72;;
67156;SDS011;54086;50.126;8.710;2023-02-20T04:56:53;13.43;;;5.37;;
67156;SDS011;54086;50.126;8.710;2023-02-20T04:59:18;12.63;;;4.70;;
67156;SDS011;54086;50.126;8.710;2023-02-20T05:01:44;11.07;;;5.00;;
67156;SDS011;54086;50.126;8.710;2023-02-20T05:04:13;13.18;;;4.60;;
67156;SDS011;54086;50.126;8.710;2023-02-20T05:06:44;11.07;;;4.63;;
67156;SDS011;54086;50.126;8.710;2023-02-20T05:09:15;12.17;;;4.27;;
67156;SDS011;54086;50.126;8.710;2023-02-20T05:11:40;10.75;;;4.78;;
67156;SDS011;54086;50.126;8.710;2023-02-20T05:14:06;12.03;;;3.93;;
67156;SDS011;54086;50.126;8.710;2023-02-20T05:16:31;12.70;;;4.90;;
67156;SDS011;54086;50.126;8.710;2023-02-20T05:18:57;14.13;;;4.90;;
67156;SDS011;54086;50.126;8.710;2023-02-20T05:21:24;11.55;;;4.63;;
67156;SDS011;54086;50.126;8.710;2023-02-20T05:24:09;11.05;;;4.70;;
67156;SDS011;54086;50.126;8.710;2023-02-20T05:26:34;11.07;;;4.57;;
67156;SDS011;54086;50.126;8.710;2023-02-20T05:29:00;10.93;;;4.67;;
67156;SDS011;54086;50.126;8.710;2023-02-20T05:31:25;11.43;;;4.93;;
67156;SDS011;54086;50.126;8.710;2023-02-20T05:33:50;13.20;;;5.13;;
67156;SDS011;54086;50.126;8.710;2023-02-20T05:36:16;12.60;;;4.53;;
67156;SDS011;54086;50.126;8.710;2023-02-20T05:38:41;13.65;;;5.07;;
67156;SDS011;54086;50.126;8.710;2023-02-20T05:41:12;12.50;;;4.40;;
67156;SDS011;54086;50.126;8.710;2023-02-20T05:43:38;10.75;;;4.25;;
67156;SDS011;54086;50.126;8.710;2023-02-20T05:46:04;13.30;;;5.20;;
67156;SDS011;54086;50.126;8.710;2023-02-20T05:48:29;11.67;;;4.43;;
67156;SDS011;54086;50.126;8.710;2023-02-20T05:50:54;11.75;;;4.32;;
67156;SDS011;54086;50.126;8.710;2023-02-20T05:53:20;12.67;;;4.47;;
67156;SDS011;54086;50.126;8.710;2023-02-20T05:55:45;11.23;;;4.80;;
67156;SDS011;54086;50.126;8.710;2023-02-20T05:58:11;11.23;;;4.77;;
67156;SDS011;54086;50.126;8.710;2023-02-20T06:00:36;15.18;;;5.32;;
67156;SDS011;54086;50.126;8.710;2023-02-20T06:03:04;15.13;;;5.20;;
67156;SDS011;54086;50.126;8.710;2023-02-20T06:05:31;12.43;;;5.05;;
67156;SDS011;54086;50.126;8.710;2023-02-20T06:07:56;14.57;;;4.93;;
67156;SDS011;54086;50.126;8.710;2023-02-20T06:10:21;13.23;;;5.10;;
67156;SDS011;54086;50.126;8.710;2023-02-20T06:12:47;13.33;;;5.40;;
67156;SDS011;54086;50.126;8.710;2023-02-20T06:15:12;11.40;;;4.77;;
67156;SDS011;54086;50.126;8.710;2023-02-20T06:17:39;13.35;;;5.30;;
67156;SDS011;54086;50.126;8.710;2023-02-20T06:20:04;12.10;;;5.17;;
67156;SDS011;54086;50.126;8.710;2023-02-20T06:22:30;12.88;;;5.85;;
67156;SDS011;54086;50.126;8.710;2023-02-20T06:24:55;15.17;;;5.97;;
67156;SDS011;54086;50.126;8.710;2023-02-20T06:27:21;13.20;;;5.37;;
67156;SDS011;54086;50.126;8.710;2023-02-20T06:29:46;12.93;;;5.35;;
67156;SDS011;54086;50.126;8.710;2023-02-20T06:32:12;13.03;;;5.80;;
67156;SDS011;54086;50.126;8.710;2023-02-20T06:34:38;14.30;;;5.70;;
67156;SDS011;54086;50.126;8.710;2023-02-20T06:37:03;13.57;;;5.50;;
67156;SDS011;54086;50.126;8.710;2023-02-20T06:39:29;14.60;;;5.95;;
67156;SDS011;54086;50.126;8.710;2023-02-20T06:41:56;14.27;;;5.75;;
67156;SDS011;54086;50.126;8.710;2023-02-20T06:44:21;18.20;;;6.30;;
67156;SDS011;54086;50.126;8.710;2023-02-20T06:46:47;17.17;;;6.37;;
67156;SDS011;54086;50.126;8.710;2023-02-20T06:49:12;17.42;;;6.53;;
67156;SDS011;54086;50.126;8.710;2023-02-20T06:51:38;12.93;;;6.00;;
67156;SDS011;54086;50.126;8.710;2023-02-20T06:54:07;12.75;;;6.00;;
67156;SDS011;54086;50.126;8.710;2023-02-20T06:56:34;15.43;;;6.03;;
67156;SDS011;54086;50.126;8.710;2023-02-20T06:59:01;13.13;;;6.53;;
67156;SDS011;54086;50.126;8.710;2023-02-20T07:01:29;16.17;;;6.55;;
67156;SDS011;54086;50.126;8.710;2023-02-20T07:04:03;15.63;;;6.23;;
67156;SDS011;54086;50.126;8.710;2023-02-20T07:06:29;16.13;;;6.90;;
67156;SDS011;54086;50.126;8.710;2023-02-20T07:08:54;14.60;;;6.30;;
67156;SDS011;54086;50.126;8.710;2023-02-20T07:11:20;14.73;;;6.57;;
67156;SDS011;54086;50.126;8.710;2023-02-20T07:13:47;15.45;;;6.43;;
67156;SDS011;54086;50.126;8.710;2023-02-20T07:16:13;14.55;;;6.13;;
67156;SDS011;54086;50.126;8.710;2023-02-20T07:18:38;15.03;;;6.60;;
67156;SDS011;54086;50.126;8.710;2023-02-20T07:21:04;16.27;;;6.88;;
67156;SDS011;54086;50.126;8.710;2023-02-20T07:23:29;15.03;;;6.37;;
67156;SDS011;54086;50.126;8.710;2023-02-20T07:25:55;15.43;;;6.10;;
67156;SDS011;54086;50.126;8.710;2023-02-20T07:28:20;13.63;;;5.88;;
67156;SDS011;54086;50.126;8.710;2023-02-20T07:30:46;14.40;;;6.80;;
67156;SDS011;54086;50.126;8.710;2023-02-20T07:33:15;15.10;;;6.43;;
67156;SDS011;54086;50.126;8.710;2023-02-20T07:35:41;13.70;;;6.30;;
67156;SDS011;54086;50.126;8.710;2023-02-20T07:38:07;12.80;;;6.07;;
67156;SDS011;54086;50.126;8.710;2023-02-20T07:40:32;12.83;;;6.67;;
67156;SDS011;54086;50.126;8.710;2023-02-20T07:42:58;12.30;;;5.43;;
67156;SDS011;54086;50.126;8.710;2023-02-20T07:45:23;13.10;;;6.03;;
67156;SDS011;54086;50.126;8.710;2023-02-20T07:47:49;12.77;;;5.35;;
67156;SDS011;54086;50.126;8.710;2023-02-20T07:50:15;13.27;;;6.30;;
67156;SDS011;54086;50.126;8.710;2023-02-20T07:52:41;15.05;;;5.78;;
67156;SDS011;54086;50.126;8.710;2023-02-20T07:55:07;15.60;;;6.85;;
67156;SDS011;54086;50.126;8.710;2023-02-20T07:57:33;13.70;;;6.00;;
67156;SDS011;54086;50.126;8.710;2023-02-20T08:00:00;13.43;;;6.10;;
67156;SDS011;54086;50.126;8.710;2023-02-20T08:02:25;14.37;;;5.83;;
67156;SDS011;54086;50.126;8.710;2023-02-20T08:04:50;13.50;;;6.00;;
67156;SDS011;54086;50.126;8.710;2023-02-20T08:07:16;14.52;;;5.68;;
67156;SDS011;54086;50.126;8.710;2023-02-20T08:09:41;14.77;;;5.40;;
67156;SDS011;54086;50.126;8.710;2023-02-20T08:12:06;12.63;;;5.77;;
67156;SDS011;54086;50.126;8.710;2023-02-20T08:14:32;10.80;;;5.20;;
67156;SDS011;54086;50.126;8.710;2023-02-20T08:16:57;14.77;;;5.87;;
67156;SDS011;54086;50.126;8.710;2023-02-20T08:19:22;11.68;;;5.60;;
67156;SDS011;54086;50.126;8.710;2023-02-20T08:21:48;10.90;;;5.00;;
67156;SDS011;54086;50.126;8.710;2023-02-20T08:24:13;11.03;;;5.03;;
67156;SDS011;54086;50.126;8.710;2023-02-20T08:26:45;12.67;;;5.00;;
67156;SDS011;54086;50.126;8.710;2023-02-20T08:29:12;12.65;;;5.00;;
67156;SDS011;54086;50.126;8.710;2023-02-20T08:31:38;13.93;;;5.82;;
67156;SDS011;54086;50.126;8.710;2023-02-20T08:34:04;12.63;;;5.47;;
67156;SDS011;54086;50.126;8.710;2023-02-20T08:36:30;15.32;;;5.78;;
67156;SDS011;54086;50.126;8.710;2023-02-20T08:38:55;12.20;;;5.40;;
67156;SDS011;54086;50.126;8.710;2023-02-20T08:41:21;11.48;;;5.25;;
67156;SDS011;54086;50.126;8.710;2023-02-20T08:43:47;12.10;;;5.53;;
67156;SDS011;54086;50.126;8.710;2023-02-20T08:46:12;11.88;;;4.80;;
67156;SDS011;54086;50.126;8.710;2023-02-20T08:48:38;11.67;;;5.07;;
67156;SDS011;54086;50.126;8.710;2023-02-20T08:51:04;13.93;;;5.67;;
67156;SDS011;54086;50.126;8.710;2023-02-20T08:53:30;13.70;;;5.82;;
67156;SDS011;54086;50.126;8.710;2023-02-20T08:55:56;15.10;;;5.88;;
67156;SDS011;54086;50.126;8.710;2023-02-20T08:58:22;14.07;;;6.47;;
67156;SDS011;54086;50.126;8.710;2023-02-20T09:00:49;15.68;;;6.07;;
67156;SDS011;54086;50.126;8.710;2023-02-20T09:03:15;12.85;;;5.90;;
67156;SDS011;54086;50.126;8.710;2023-02-20T09:05:41;15.23;;;6.67;;
67156;SDS011;54086;50.126;8.710;2023-02-20T09:08:07;14.63;;;6.93;;
67156;SDS011;54086;50.126;8.710;2023-02-20T09:10:32;13.67;;;6.77;;
67156;SDS011;54086;50.126;8.710;2023-02-20T09:12:57;15.07;;;6.65;;
67156;SDS011;54086;50.126;8.710;2023-02-20T09:15:23;17.40;;;6.57;;
67156;SDS011;54086;50.126;8.710;2023-02-20T09:17:49;14.67;;;6.47;;
67156;SDS011;54086;50.126;8.710;2023-02-20T09:20:15;13.70;;;7.05;;
67156;SDS011;54086;50.126;8.710;2023-02-20T09:22:42;15.75;;;6.90;;
67156;SDS011;54086;50.126;8.710;2023-02-20T09:25:09;16.43;;;6.73;;
67156;SDS011;54086;50.126;8.710;2023-02-20T09:27:35;15.15;;;7.22;;
67156;SDS011;54086;50.126;8.710;2023-02-20T09:30:01;14.57;;;7.13;;
67156;SDS011;54086;50.126;8.710;2023-02-20T09:32:26;17.23;;;6.40;;
67156;SDS011;54086;50.126;8.710;2023-02-20T09:34:51;12.70;;;5.97;;
67156;SDS011;54086;50.126;8.710;2023-02-20T09:37:17;16.90;;;6.95;;
67156;SDS011;54086;50.126;8.710;2023-02-20T09:39:42;15.20;;;7.10;;
67156;SDS011;54086;50.126;8.710;2023-02-20T09:42:15;15.83;;;6.77;;
67156;SDS011;54086;50.126;8.710;2023-02-20T09:44:56;13.27;;;6.10;;
67156;SDS011;54086;50.126;8.710;2023-02-20T09:50:14;12.55;;;6.20;;
67156;SDS011;54086;50.126;8.710;2023-02-20T09:52:48;12.93;;;6.60;;
67156;SDS011;54086;50.126;8.710;2023-02-20T09:55:19;14.23;;;6.43;;
67156;SDS011;54086;50.126;8.710;2023-02-20T09:57:47;17.50;;;6.93;;
67156;SDS011;54086;50.126;8.710;2023-02-20T10:00:23;14.93;;;7.18;;
67156;SDS011;54086;50.126;8.710;2023-02-20T10:05:40;16.00;;;6.40;;
67156;SDS011;54086;50.126;8.710;2023-02-20T10:08:08;15.90;;;6.17;;
67156;SDS011;54086;50.126;8.710;2023-02-20T10:10:34;16.42;;;6.40;;
67156;SDS011;54086;50.126;8.710;2023-02-20T10:13:12;14.15;;;6.80;;
67156;SDS011;54086;50.126;8.710;2023-02-20T10:16:12;13.50;;;6.45;;
67156;SDS011;54086;50.126;8.710;2023-02-20T10:23:59;13.43;;;6.95;;
67156;SDS011;54086;50.126;8.710;2023-02-20T10:26:36;16.77;;;7.53;;
67156;SDS011;54086;50.126;8.710;2023-02-20T10:29:15;16.13;;;7.03;;
67156;SDS011;54086;50.126;8.710;2023-02-20T10:31:45;13.88;;;7.10;;
67156;SDS011;54086;50.126;8.710;2023-02-20T10:34:18;14.17;;;7.67;;
67156;SDS011;54086;50.126;8.710;2023-02-20T10:36:49;17.52;;;7.30;;
67156;SDS011;54086;50.126;8.710;2023-02-20T10:39:19;17.00;;;8.20;;
67156;SDS011;54086;50.126;8.710;2023-02-20T10:44:35;18.00;;;7.60;;
67156;SDS011;54086;50.126;8.710;2023-02-20T10:47:06;18.20;;;7.60;;
67156;SDS011;54086;50.126;8.710;2023-02-20T10:52:13;16.27;;;7.38;;
67156;SDS011;54086;50.126;8.710;2023-02-20T10:54:44;16.25;;;7.35;;
67156;SDS011;54086;50.126;8.710;2023-02-20T10:59:56;15.77;;;6.90;;
67156;SDS011;54086;50.126;8.710;2023-02-20T11:02:33;14.20;;;7.45;;
67156;SDS011;54086;50.126;8.710;2023-02-20T11:05:07;18.60;;;7.97;;
67156;SDS011;54086;50.126;8.710;2023-02-20T11:07:36;16.40;;;7.70;;
67156;SDS011;54086;50.126;8.710;2023-02-20T11:10:02;17.83;;;7.47;;
67156;SDS011;54086;50.126;8.710;2023-02-20T11:12:29;14.20;;;7.47;;
67156;SDS011;54086;50.126;8.710;2023-02-20T11:14:59;16.50;;;8.20;;
67156;SDS011;54086;50.126;8.710;2023-02-20T11:17:29;18.93;;;8.13;;
67156;SDS011;54086;50.126;8.710;2023-02-20T11:19:57;13.55;;;7.22;;
67156;SDS011;54086;50.126;8.710;2023-02-20T11:22:42;16.42;;;6.85;;
67156;SDS011;54086;50.126;8.710;2023-02-20T11:25:26;15.60;;;7.35;;
67156;SDS011;54086;50.126;8.710;2023-02-20T11:27:54;15.38;;;6.88;;
67156;SDS011;54086;50.126;8.710;2023-02-20T11:32:47;11.98;;;6.22;;
67156;SDS011;54086;50.126;8.710;2023-02-20T11:37:46;14.85;;;7.30;;
67156;SDS011;54086;50.126;8.710;2023-02-20T11:42:52;14.43;;;6.55;;
67156;SDS011;54086;50.126;8.710;2023-02-20T11:45:22;17.17;;;6.97;;
67156;SDS011;54086;50.126;8.710;2023-02-20T11:50:45;14.50;;;6.45;;
67156;SDS011;54086;50.126;8.710;2023-02-20T11:53:32;11.82;;;5.72;;
67156;SDS011;54086;50.126;8.710;2023-02-20T11:56:08;11.40;;;5.63;;
67156;SDS011;54086;50.126;8.710;2023-02-20T11:58:34;13.93;;;5.50;;
67156;SDS011;54086;50.126;8.710;2023-02-20T12:01:00;14.80;;;6.13;;
67156;SDS011;54086;50.126;8.710;2023-02-20T12:03:27;12.13;;;4.67;;
67156;SDS011;54086;50.126;8.710;2023-02-20T12:05:56;10.00;;;4.47;;
67156;SDS011;54086;50.126;8.710;2023-02-20T12:11:04;14.50;;;5.40;;
67156;SDS011;54086;50.126;8.710;2023-02-20T12:13:39;11.93;;;5.35;;
67156;SDS011;54086;50.126;8.710;2023-02-20T12:38:58;10.07;;;4.68;;
67156;SDS011;54086;50.126;8.710;2023-02-20T12:46:39;11.53;;;4.80;;
67156;SDS011;54086;50.126;8.710;2023-02-20T12:54:50;11.02;;;5.03;;
67156;SDS011;54086;50.126;8.710;2023-02-20T12:57:27;10.98;;;4.68;;
67156;SDS011;54086;50.126;8.710;2023-02-20T12:59:58;12.63;;;5.10;;
67156;SDS011;54086;50.126;8.710;2023-02-20T13:02:31;10.38;;;4.35;;
67156;SDS011;54086;50.126;8.710;2023-02-20T13:05:08;9.02;;;3.88;;
67156;SDS011;54086;50.126;8.710;2023-02-20T13:07:52;11.25;;;3.63;;
67156;SDS011;54086;50.126;8.710;2023-02-20T13:10:27;10.55;;;3.78;;
67156;SDS011;54086;50.126;8.710;2023-02-20T13:12:56;9.77;;;3.40;;
67156;SDS011;54086;50.126;8.710;2023-02-20T13:21:12;11.77;;;3.60;;
67156;SDS011;54086;50.126;8.710;2023-02-20T13:23:40;9.40;;;3.15;;
67156;SDS011;54086;50.126;8.710;2023-02-20T13:26:42;12.47;;;3.80;;
67156;SDS011;54086;50.126;8.710;2023-02-20T13:28:51;9.80;;;4.13;;
67156;SDS011;54086;50.126;8.710;2023-02-20T13:31:21;9.07;;;3.50;;
67156;SDS011;54086;50.126;8.710;2023-02-20T13:36:16;8.65;;;3.70;;
67156;SDS011;54086;50.126;8.710;2023-02-20T13:46:55;10.87;;;3.10;;
67156;SDS011;54086;50.126;8.710;2023-02-20T13:54:54;8.10;;;2.92;;
67156;SDS011;54086;50.126;8.710;2023-02-20T13:57:21;8.50;;;2.75;;
67156;SDS011;54086;50.126;8.710;2023-02-20T13:59:51;8.37;;;3.17;;
67156;SDS011;54086;50.126;8.710;2023-02-20T14:02:19;10.82;;;3.35;;
67156;SDS011;54086;50.126;8.710;2023-02-20T14:04:57;8.25;;;3.22;;
67156;SDS011;54086;50.126;8.710;2023-02-20T14:09:59;10.23;;;3.53;;
67156;SDS011;54086;50.126;8.710;2023-02-20T14:12:26;10.00;;;3.60;;
67156;SDS011;54086;50.126;8.710;2023-02-20T14:14:51;8.10;;;3.47;;
67156;SDS011;54086;50.126;8.710;2023-02-20T14:17:18;9.20;;;3.30;;
67156;SDS011;54086;50.126;8.710;2023-02-20T14:19:52;8.63;;;3.05;;
67156;SDS011;54086;50.126;8.710;2023-02-20T14:22:30;10.30;;;3.17;;
67156;SDS011;54086;50.126;8.710;2023-02-20T14:27:36;9.20;;;3.30;;
67156;SDS011;54086;50.126;8.710;2023-02-20T14:30:07;8.63;;;3.10;;
67156;SDS011;54086;50.126;8.710;2023-02-20T14:32:36;12.02;;;2.92;;
67156;SDS011;54086;50.126;8.710;2023-02-20T14:35:07;9.43;;;3.20;;
67156;SDS011;54086;50.126;8.710;2023-02-20T14:37:47;8.93;;;2.78;;
67156;SDS011;54086;50.126;8.710;2023-02-20T14:40:35;12.40;;;2.58;;
67156;SDS011;54086;50.126;8.710;2023-02-20T14:43:03;9.10;;;2.87;;
67156;SDS011;54086;50.126;8.710;2023-02-20T14:45:34;9.15;;;2.92;;
67156;SDS011;54086;50.126;8.710;2023-02-20T14:48:00;9.50;;;2.87;;
67156;SDS011;54086;50.126;8.710;2023-02-20T14:50:27;9.45;;;2.60;;
67156;SDS011;54086;50.126;8.710;2023-02-20T14:53:13;8.75;;;2.42;;
67156;SDS011;54086;50.126;8.710;2023-02-20T14:55:39;7.83;;;2.77;;
67156;SDS011;54086;50.126;8.710;2023-02-20T14:58:13;8.02;;;2.70;;
67156;SDS011;54086;50.126;8.710;2023-02-20T15:00:39;8.45;;;2.50;;
67156;SDS011;54086;50.126;8.710;2023-02-20T15:03:10;11.95;;;3.00;;
67156;SDS011;54086;50.126;8.710;2023-02-20T15:05:49;9.00;;;2.80;;
67156;SDS011;54086;50.126;8.710;2023-02-20T15:10:49;8.18;;;2.50;;
67156;SDS011;54086;50.126;8.710;2023-02-20T15:13:17;9.95;;;3.05;;
67156;SDS011;54086;50.126;8.710;2023-02-20T15:15:46;10.02;;;2.72;;
67156;SDS011;54086;50.126;8.710;2023-02-20T15:18:36;9.57;;;2.63;;
67156;SDS011;54086;50.126;8.710;2023-02-20T15:21:01;12.50;;;2.80;;
67156;SDS011;54086;50.126;8.710;2023-02-20T15:23:35;11.20;;;3.10;;
67156;SDS011;54086;50.126;8.710;2023-02-20T15:31:37;9.80;;;2.63;;
67156;SDS011;54086;50.126;8.710;2023-02-20T15:34:12;10.18;;;3.13;;
67156;SDS011;54086;50.126;8.710;2023-02-20T15:36:42;9.20;;;3.50;;
67156;SDS011;54086;50.126;8.710;2023-02-20T15:39:15;11.45;;;3.92;;
67156;SDS011;54086;50.126;8.710;2023-02-20T15:41:42;10.57;;;3.30;;
67156;SDS011;54086;50.126;8.710;2023-02-20T15:44:08;11.23;;;3.05;;
67156;SDS011;54086;50.126;8.710;2023-02-20T15:46:34;9.40;;;3.30;;
67156;SDS011;54086;50.126;8.710;2023-02-20T15:49:00;15.93;;;3.13;;
67156;SDS011;54086;50.126;8.710;2023-02-20T15:51:26;11.55;;;3.55;;
67156;SDS011;54086;50.126;8.710;2023-02-20T15:53:52;8.10;;;2.80;;
67156;SDS011;54086;50.126;8.710;2023-02-20T15:56:21;7.93;;;2.58;;
67156;SDS011;54086;50.126;8.710;2023-02-20T15:58:46;12.77;;;2.87;;
67156;SDS011;54086;50.126;8.710;2023-02-20T16:01:13;8.57;;;2.90;;
67156;SDS011;54086;50.126;8.710;2023-02-20T16:03:38;9.63;;;2.80;;
67156;SDS011;54086;50.126;8.710;2023-02-20T16:06:04;8.50;;;2.60;;
67156;SDS011;54086;50.126;8.710;2023-02-20T16:08:30;10.47;;;2.90;;
67156;SDS011;54086;50.126;8.710;2023-02-20T16:10:56;9.88;;;3.38;;
67156;SDS011;54086;50.126;8.710;2023-02-20T16:15:55;9.60;;;2.70;;
67156;SDS011;54086;50.126;8.710;2023-02-20T16:18:20;8.68;;;2.97;;
67156;SDS011;54086;50.126;8.710;2023-02-20T16:20:47;10.27;;;2.67;;
67156;SDS011;54086;50.126;8.710;2023-02-20T16:23:14;8.68;;;2.80;;
67156;SDS011;54086;50.126;8.710;2023-02-20T16:25:39;12.95;;;2.80;;
67156;SDS011;54086;50.126;8.710;2023-02-20T16:28:05;9.70;;;2.80;;
67156;SDS011;54086;50.126;8.710;2023-02-20T16:30:35;12.15;;;3.28;;
67156;SDS011;54086;50.126;8.710;2023-02-20T16:33:19;8.30;;;3.10;;
67156;SDS011;54086;50.126;8.710;2023-02-20T16:35:45;8.27;;;2.90;;
67156;SDS011;54086;50.126;8.710;2023-02-20T16:38:14;8.02;;;2.55;;
67156;SDS011;54086;50.126;8.710;2023-02-20T16:40:39;10.15;;;2.42;;
67156;SDS011;54086;50.126;8.710;2023-02-20T16:43:05;9.00;;;2.67;;
67156;SDS011;54086;50.126;8.710;2023-02-20T16:45:31;7.83;;;2.80;;
67156;SDS011;54086;50.126;8.710;2023-02-20T16:47:57;10.73;;;2.70;;
67156;SDS011;54086;50.126;8.710;2023-02-20T16:50:24;10.43;;;2.60;;
67156;SDS011;54086;50.126;8.710;2023-02-20T16:52:54;6.82;;;2.70;;
67156;SDS011;54086;50.126;8.710;2023-02-20T16:57:57;9.77;;;2.65;;
67156;SDS011;54086;50.126;8.710;2023-02-20T17:00:29;8.13;;;3.07;;